Time;durP1;ratioP1;P1;durP2;ratioP2;P2;SDS_P1;SDS_P2;PMS_P1;PMS_P2;Temp;Humidity;BMP_temperature;BMP_pressure;BME280_temperature;BME280_humidity;BME280_pressure;Samples;Min_cycle;Max_cycle;Signal;HPM_P1;HPM_P2
2020/12/17 00:00:12;;;;;;;21.52;12.05;;;3.30;85.20;;;;;;5033841;28;20029;-66
2020/12/17 00:02:37;;;;;;;22.60;12.23;;;3.40;85.30;;;;;;5022616;28;20052;-66
2020/12/17 00:05:03;;;;;;;22.08;11.63;;;3.30;85.20;;;;;;5033825;28;20029;-67
2020/12/17 00:07:29;;;;;;;19.20;11.68;;;3.30;85.30;;;;;;5033579;28;20037;-66
2020/12/17 00:09:54;;;;;;;22.63;11.27;;;3.30;85.40;;;;;;5033144;28;20394;-66
2020/12/17 00:12:20;;;;;;;17.60;10.85;;;3.30;85.40;;;;;;5033557;28;20083;-66
2020/12/17 00:14:45;;;;;;;18.88;10.65;;;3.30;85.40;;;;;;5033938;28;20108;-66
2020/12/17 00:17:11;;;;;;;17.42;10.73;;;3.30;85.40;;;;;;5033558;28;20139;-66
2020/12/17 00:19:36;;;;;;;20.90;11.30;;;3.20;85.40;;;;;;5033236;28;20394;-66
2020/12/17 00:22:02;;;;;;;20.65;11.68;;;3.20;86.00;;;;;;5033431;28;20548;-66
2020/12/17 00:24:27;;;;;;;18.58;10.63;;;3.30;85.60;;;;;;5015207;28;20382;-66
2020/12/17 00:26:53;;;;;;;16.92;10.95;;;3.30;85.60;;;;;;5033546;28;20044;-66
2020/12/17 00:29:18;;;;;;;21.95;11.82;;;3.30;85.50;;;;;;5015298;28;20116;-66
2020/12/17 00:31:44;;;;;;;18.40;10.43;;;3.30;85.70;;;;;;5033782;28;20080;-66
2020/12/17 00:34:10;;;;;;;19.23;11.65;;;3.20;85.50;;;;;;5033278;28;20080;-66
2020/12/17 00:36:35;;;;;;;22.83;11.40;;;3.30;85.60;;;;;;5015445;28;20021;-65
2020/12/17 00:39:01;;;;;;;19.33;11.27;;;3.30;85.60;;;;;;5033082;28;20037;-65
2020/12/17 00:41:26;;;;;;;18.85;11.27;;;3.30;85.60;;;;;;5032976;28;20371;-65
2020/12/17 00:43:52;;;;;;;17.98;10.73;;;3.20;85.60;;;;;;5033329;28;20079;-66
2020/12/17 00:46:17;;;;;;;19.67;10.88;;;3.30;85.70;;;;;;5033376;28;20022;-65
2020/12/17 00:48:43;;;;;;;18.98;11.63;;;3.30;85.70;;;;;;5033320;28;20374;-66
2020/12/17 00:51:10;;;;;;;18.17;10.65;;;3.30;85.80;;;;;;5031559;28;20033;-66
2020/12/17 00:53:35;;;;;;;21.38;11.57;;;3.30;85.80;;;;;;5027879;28;20506;-66
2020/12/17 00:56:01;;;;;;;21.27;12.20;;;3.30;85.80;;;;;;5032379;28;20204;-66
2020/12/17 00:58:27;;;;;;;19.30;11.27;;;3.30;85.90;;;;;;5032987;28;20056;-66
2020/12/17 01:00:53;;;;;;;18.48;11.45;;;3.30;85.90;;;;;;5030923;28;20459;-66
2020/12/17 01:03:19;;;;;;;20.25;11.65;;;3.30;85.80;;;;;;5022924;28;20068;-66
2020/12/17 01:05:45;;;;;;;19.60;11.40;;;3.40;85.80;;;;;;5032167;28;20797;-66
2020/12/17 01:08:10;;;;;;;22.50;11.77;;;3.40;85.90;;;;;;5014282;28;20386;-65
2020/12/17 01:10:36;;;;;;;23.10;12.43;;;3.30;85.90;;;;;;5030168;28;20052;-66
2020/12/17 01:13:02;;;;;;;21.08;12.02;;;3.40;85.90;;;;;;5032289;28;20033;-66
2020/12/17 01:15:27;;;;;;;23.17;12.43;;;3.40;86.00;;;;;;5032601;28;20029;-66
2020/12/17 01:17:53;;;;;;;19.83;11.90;;;3.40;86.00;;;;;;5032824;28;20367;-66
2020/12/17 01:20:19;;;;;;;21.67;12.15;;;3.40;85.90;;;;;;5031262;28;20112;-66
2020/12/17 01:22:44;;;;;;;21.60;12.43;;;3.40;86.00;;;;;;5032092;28;20589;-66
2020/12/17 01:25:10;;;;;;;22.38;12.77;;;3.50;86.00;;;;;;5015216;28;20030;-65
2020/12/17 01:27:35;;;;;;;20.10;12.30;;;3.50;86.00;;;;;;5032703;28;20029;-66
2020/12/17 01:30:01;;;;;;;21.63;12.13;;;3.50;85.90;;;;;;5014533;28;20018;-66
2020/12/17 01:32:27;;;;;;;19.60;11.93;;;3.50;85.90;;;;;;5032064;28;20034;-66
2020/12/17 01:34:52;;;;;;;19.50;11.88;;;3.50;85.90;;;;;;5014720;28;20056;-66
2020/12/17 01:37:18;;;;;;;19.77;11.35;;;3.40;85.90;;;;;;5013906;28;20061;-66
2020/12/17 01:39:44;;;;;;;19.08;11.10;;;3.40;86.00;;;;;;5031800;28;20037;-66
2020/12/17 01:42:10;;;;;;;24.27;12.43;;;3.50;86.10;;;;;;5031636;28;20080;-66
2020/12/17 01:44:40;;;;;;;24.30;11.95;;;3.50;86.20;;;;;;5032639;28;20037;-66
2020/12/17 01:47:05;;;;;;;23.58;13.57;;;3.50;86.30;;;;;;5032072;28;20037;-66
2020/12/17 01:49:32;;;;;;;22.52;12.70;;;3.50;86.20;;;;;;5031887;28;20041;-65
2020/12/17 01:51:58;;;;;;;22.88;12.23;;;3.60;86.30;;;;;;5031015;28;20060;-65
2020/12/17 01:54:24;;;;;;;23.30;13.73;;;3.50;86.20;;;;;;5032224;28;20064;-66
2020/12/17 01:57:00;;;;;;;22.02;12.55;;;3.60;86.30;;;;;;5032061;28;20029;-66
2020/12/17 01:59:28;;;;;;;23.90;13.43;;;3.60;86.30;;;;;;5031112;28;20033;-65
2020/12/17 02:01:55;;;;;;;21.98;12.13;;;3.60;86.20;;;;;;5025534;28;20019;-66
2020/12/17 02:04:23;;;;;;;24.48;12.82;;;3.70;86.20;;;;;;5032047;28;20049;-66
2020/12/17 02:06:50;;;;;;;23.33;12.48;;;3.70;86.10;;;;;;5031497;28;20168;-66
2020/12/17 02:09:16;;;;;;;21.02;11.88;;;3.70;86.00;;;;;;5012695;28;20097;-66
2020/12/17 02:11:55;;;;;;;19.70;11.88;;;3.60;86.00;;;;;;5031794;28;20030;-66
2020/12/17 02:14:22;;;;;;;21.38;12.30;;;3.60;86.20;;;;;;5032182;28;20033;-66
2020/12/17 02:16:48;;;;;;;20.85;12.52;;;3.60;86.20;;;;;;5030743;28;20049;-65
2020/12/17 02:19:14;;;;;;;22.77;12.88;;;3.70;86.30;;;;;;5014067;28;20025;-66
2020/12/17 02:21:40;;;;;;;26.33;13.88;;;3.70;86.30;;;;;;5028754;28;20045;-65
2020/12/17 02:24:06;;;;;;;22.95;12.90;;;3.80;86.40;;;;;;5030762;28;20045;-66
2020/12/17 02:26:32;;;;;;;20.95;11.95;;;3.80;86.40;;;;;;5030794;28;20029;-65
2020/12/17 02:28:57;;;;;;;22.85;12.15;;;3.80;86.10;;;;;;5028741;28;20509;-66
2020/12/17 02:31:27;;;;;;;20.50;12.25;;;3.80;86.10;;;;;;5031510;28;20528;-66
2020/12/17 02:33:53;;;;;;;21.73;12.50;;;3.80;86.10;;;;;;5034805;28;20120;-65
2020/12/17 02:36:19;;;;;;;21.35;12.45;;;3.80;86.20;;;;;;5035660;28;20602;-66
2020/12/17 02:38:45;;;;;;;23.42;13.00;;;3.80;86.30;;;;;;5035707;28;20037;-66
2020/12/17 02:41:10;;;;;;;22.70;12.50;;;3.90;86.40;;;;;;5034976;28;20104;-65
2020/12/17 02:43:38;;;;;;;22.17;12.70;;;3.90;86.30;;;;;;5035322;28;20076;-65
2020/12/17 02:46:03;;;;;;;19.92;12.02;;;3.90;86.30;;;;;;5035682;28;20037;-66
2020/12/17 02:48:29;;;;;;;23.33;12.73;;;3.90;86.20;;;;;;5034658;28;20105;-66
2020/12/17 02:50:55;;;;;;;18.30;11.93;;;3.90;86.20;;;;;;5035129;28;20032;-66
2020/12/17 02:53:20;;;;;;;21.88;12.45;;;3.90;86.10;;;;;;5035219;28;20033;-66
2020/12/17 02:55:46;;;;;;;20.67;11.43;;;3.90;86.00;;;;;;5034948;28;20541;-66
2020/12/17 02:58:11;;;;;;;19.20;11.45;;;3.90;86.10;;;;;;5035879;28;20029;-66
2020/12/17 03:00:37;;;;;;;18.98;11.45;;;3.90;86.10;;;;;;5017028;28;20099;-66
2020/12/17 03:03:03;;;;;;;19.95;12.13;;;3.80;86.10;;;;;;5027738;28;20041;-66
2020/12/17 03:05:28;;;;;;;20.80;11.02;;;3.80;86.10;;;;;;5035271;28;20038;-65
2020/12/17 03:07:55;;;;;;;19.50;10.77;;;3.80;86.20;;;;;;5035007;28;20037;-66
2020/12/17 03:10:21;;;;;;;18.48;11.38;;;3.80;86.10;;;;;;5034571;28;20032;-66
2020/12/17 03:12:47;;;;;;;21.00;11.05;;;3.80;86.10;;;;;;5021242;28;20053;-66
2020/12/17 03:15:13;;;;;;;18.48;11.45;;;3.70;86.20;;;;;;5035267;28;20048;-66
2020/12/17 03:17:40;;;;;;;21.95;10.77;;;3.70;86.20;;;;;;5034820;28;20037;-65
2020/12/17 03:20:07;;;;;;;18.98;11.05;;;3.80;86.40;;;;;;5034065;28;20095;-66
2020/12/17 03:22:34;;;;;;;17.33;10.63;;;3.70;86.30;;;;;;5018920;28;20033;-65
2020/12/17 03:25:00;;;;;;;20.98;10.82;;;3.70;86.30;;;;;;5034970;28;20071;-66
2020/12/17 03:27:26;;;;;;;20.00;10.65;;;3.60;86.20;;;;;;5034818;28;20043;-66
2020/12/17 03:29:52;;;;;;;19.27;11.15;;;3.60;86.20;;;;;;5033622;28;20397;-66
2020/12/17 03:32:18;;;;;;;19.70;11.45;;;3.60;86.30;;;;;;5034692;28;20025;-66
2020/12/17 03:34:43;;;;;;;18.88;10.32;;;3.60;86.40;;;;;;5034966;28;20458;-66
2020/12/17 03:37:09;;;;;;;18.30;10.10;;;3.50;86.30;;;;;;5034294;28;20103;-65
2020/12/17 03:39:35;;;;;;;16.15;9.50;;;3.50;86.20;;;;;;5033988;28;20126;-66
2020/12/17 03:42:01;;;;;;;17.98;10.52;;;3.50;86.30;;;;;;5033630;28;20120;-66
2020/12/17 03:44:27;;;;;;;19.02;10.65;;;3.40;86.30;;;;;;5033762;28;20128;-66
2020/12/17 03:46:53;;;;;;;18.23;10.45;;;3.40;86.90;;;;;;5034551;28;20029;-66
2020/12/17 03:49:18;;;;;;;17.05;10.90;;;3.40;86.50;;;;;;5030373;28;20267;-66
2020/12/17 03:51:44;;;;;;;18.55;10.75;;;3.40;86.60;;;;;;5034050;28;20040;-66
2020/12/17 03:54:09;;;;;;;18.77;10.82;;;3.40;86.80;;;;;;5033512;28;20035;-66
2020/12/17 03:56:35;;;;;;;18.85;10.68;;;3.50;86.70;;;;;;5016302;28;20026;-66
2020/12/17 03:59:00;;;;;;;19.13;10.35;;;3.50;86.60;;;;;;5033621;28;20033;-65
2020/12/17 04:01:26;;;;;;;17.73;10.73;;;3.50;86.50;;;;;;5028740;28;20100;-65
2020/12/17 04:03:51;;;;;;;18.38;10.68;;;3.50;86.40;;;;;;5032767;28;20091;-66
2020/12/17 04:06:17;;;;;;;17.70;9.57;;;3.50;86.40;;;;;;5034264;28;20064;-66
2020/12/17 04:08:43;;;;;;;16.17;10.10;;;3.50;86.30;;;;;;5033146;28;20049;-66
2020/12/17 04:11:09;;;;;;;16.88;10.23;;;3.50;86.30;;;;;;5033372;28;20056;-66
2020/12/17 04:13:35;;;;;;;17.42;11.27;;;3.40;86.40;;;;;;5033835;28;20048;-66
2020/12/17 04:16:02;;;;;;;16.25;10.13;;;3.50;86.60;;;;;;5034200;28;20025;-66
2020/12/17 04:18:27;;;;;;;17.77;10.45;;;3.50;86.50;;;;;;5033357;28;20069;-66
2020/12/17 04:20:53;;;;;;;15.32;9.85;;;3.50;86.40;;;;;;5033392;28;20121;-66
2020/12/17 04:23:18;;;;;;;16.35;9.68;;;3.50;86.50;;;;;;5033171;28;20037;-66
2020/12/17 04:25:44;;;;;;;15.48;9.93;;;3.60;86.30;;;;;;5033706;28;20030;-66
2020/12/17 04:28:09;;;;;;;15.77;9.88;;;3.50;86.30;;;;;;5033353;28;20053;-65
2020/12/17 04:30:35;;;;;;;14.80;9.20;;;3.60;86.30;;;;;;5033070;28;20096;-66
2020/12/17 04:33:01;;;;;;;14.77;9.45;;;3.60;86.30;;;;;;5033518;28;20053;-66
2020/12/17 04:35:26;;;;;;;14.68;9.55;;;3.50;86.80;;;;;;5033387;28;20029;-66
2020/12/17 04:37:52;;;;;;;15.20;9.45;;;3.50;86.20;;;;;;5033300;28;20030;-66
2020/12/17 04:40:18;;;;;;;13.80;9.15;;;3.50;86.20;;;;;;5015390;28;20482;-66
2020/12/17 04:42:48;;;;;;;16.52;9.65;;;3.50;86.20;;;;;;5032311;28;20026;-66
2020/12/17 04:45:14;;;;;;;12.77;8.80;;;3.50;86.20;;;;;;5033793;28;20112;-66
2020/12/17 04:47:39;;;;;;;15.27;9.05;;;3.60;86.20;;;;;;5033244;28;20483;-66
2020/12/17 04:50:08;;;;;;;12.98;9.07;;;3.60;86.20;;;;;;5031896;28;20113;-66
2020/12/17 04:52:38;;;;;;;12.73;8.80;;;3.60;86.10;;;;;;5033008;28;20029;-66
2020/12/17 04:55:05;;;;;;;13.35;8.40;;;3.60;86.00;;;;;;5032744;28;20039;-66
2020/12/17 04:57:32;;;;;;;15.05;9.48;;;3.50;85.80;;;;;;5032902;28;20029;-65
2020/12/17 04:59:58;;;;;;;15.63;8.50;;;3.50;85.90;;;;;;5032483;28;20479;-66
2020/12/17 05:02:24;;;;;;;16.08;9.95;;;3.40;85.90;;;;;;5022458;28;20044;-66
2020/12/17 05:04:52;;;;;;;13.98;9.60;;;3.40;86.10;;;;;;5030622;28;20041;-67
2020/12/17 05:07:19;;;;;;;15.25;8.68;;;3.40;86.30;;;;;;5032998;28;20048;-66
2020/12/17 05:09:46;;;;;;;17.83;9.20;;;3.30;86.10;;;;;;5032804;28;20044;-66
2020/12/17 05:12:12;;;;;;;13.30;8.57;;;3.30;86.20;;;;;;5029942;28;20130;-66
2020/12/17 05:14:39;;;;;;;16.27;9.20;;;3.30;86.20;;;;;;5025425;28;20021;-66
2020/12/17 05:17:05;;;;;;;15.32;8.93;;;3.30;86.20;;;;;;5032267;28;20037;-66
2020/12/17 05:19:31;;;;;;;15.02;9.32;;;3.30;86.20;;;;;;5032016;28;20358;-66
2020/12/17 05:21:58;;;;;;;14.63;9.02;;;3.30;86.20;;;;;;5031915;28;20039;-66
2020/12/17 05:24:25;;;;;;;15.63;9.25;;;3.30;86.30;;;;;;5032996;28;20413;-66
2020/12/17 05:26:52;;;;;;;14.60;9.45;;;3.30;86.30;;;;;;5032585;28;20419;-66
2020/12/17 05:29:18;;;;;;;14.50;8.85;;;3.30;86.30;;;;;;5011315;28;20030;-66
2020/12/17 05:31:45;;;;;;;15.00;9.23;;;3.30;86.20;;;;;;4997604;28;20385;-66
2020/12/17 05:34:11;;;;;;;15.90;9.30;;;3.40;86.20;;;;;;5032192;28;20030;-66
2020/12/17 05:36:39;;;;;;;15.20;9.07;;;3.40;86.60;;;;;;5032387;28;20029;-66
2020/12/17 05:39:12;;;;;;;12.48;8.13;;;3.40;86.00;;;;;;5032086;28;20060;-66
2020/12/17 05:41:39;;;;;;;14.85;8.43;;;3.40;86.00;;;;;;5031749;28;20513;-66
2020/12/17 05:44:12;;;;;;;13.00;8.75;;;3.40;85.80;;;;;;5032041;28;20428;-66
2020/12/17 05:46:38;;;;;;;;;;;3.50;85.90;;;;;;5032884;28;20470;-66
2020/12/17 05:49:09;;;;;;;12.20;7.88;;;3.50;85.80;;;;;;5023750;28;19920;-64
2020/12/17 05:51:34;;;;;;;12.65;7.75;;;3.50;85.60;;;;;;5031894;28;20034;-66
2020/12/17 05:54:00;;;;;;;12.05;7.95;;;3.50;85.60;;;;;;5031669;28;20020;-66
2020/12/17 05:56:26;;;;;;;12.50;8.10;;;3.50;85.60;;;;;;5032184;28;20437;-66
2020/12/17 05:58:52;;;;;;;14.10;8.25;;;3.50;85.60;;;;;;5032345;28;20363;-66
2020/12/17 06:01:17;;;;;;;11.05;7.40;;;3.50;85.50;;;;;;5030089;28;20040;-66
2020/12/17 06:03:44;;;;;;;10.50;7.63;;;3.50;85.40;;;;;;5032110;28;20029;-66
2020/12/17 06:06:11;;;;;;;10.70;7.43;;;3.50;85.30;;;;;;5031623;28;20136;-66
2020/12/17 06:08:41;;;;;;;12.32;7.57;;;3.50;85.20;;;;;;5031418;28;20049;-66
2020/12/17 06:11:09;;;;;;;12.50;8.02;;;3.50;85.30;;;;;;5031516;28;20445;-66
2020/12/17 06:13:42;;;;;;;12.57;7.95;;;3.40;85.30;;;;;;5030753;28;20028;-66
2020/12/17 06:16:10;;;;;;;13.77;7.93;;;3.40;85.40;;;;;;5032074;28;20029;-66
2020/12/17 06:18:37;;;;;;;12.55;8.10;;;3.40;85.40;;;;;;5032080;28;20382;-66
2020/12/17 06:21:09;;;;;;;10.13;7.15;;;3.40;85.40;;;;;;5031421;28;20036;-66
2020/12/17 06:23:36;;;;;;;16.67;10.18;;;3.30;85.20;;;;;;5017647;28;20041;-65
2020/12/17 06:26:06;;;;;;;11.95;8.27;;;3.30;85.40;;;;;;5010074;28;20394;-66
2020/12/17 06:28:46;;;;;;;13.65;8.27;;;3.30;85.40;;;;;;5031177;28;20060;-66
2020/12/17 06:31:26;;;;;;;11.50;8.07;;;3.30;85.40;;;;;;5013859;28;20022;-65
2020/12/17 06:34:02;;;;;;;13.45;8.20;;;3.30;85.30;;;;;;5023688;28;20041;-66
2020/12/17 06:36:35;;;;;;;12.48;8.98;;;3.30;85.40;;;;;;5030960;28;20087;-66
2020/12/17 06:39:07;;;;;;;10.80;7.68;;;3.30;85.30;;;;;;5029058;28;20021;-66
2020/12/17 06:41:32;;;;;;;15.05;9.15;;;3.30;85.20;;;;;;5030706;28;20026;-65
2020/12/17 06:43:58;;;;;;;13.88;9.30;;;3.20;85.10;;;;;;5029343;28;20052;-64
2020/12/17 06:46:36;;;;;;;14.30;7.82;;;3.20;85.20;;;;;;5026794;28;20040;-66
2020/12/17 06:49:07;;;;;;;11.85;7.57;;;3.20;85.10;;;;;;5037617;28;20117;-66
2020/12/17 06:51:35;;;;;;;13.40;8.70;;;3.20;85.00;;;;;;5031036;28;20881;-66
2020/12/17 06:54:17;;;;;;;14.38;8.35;;;3.20;85.10;;;;;;5030034;28;20521;-65
2020/12/17 06:57:02;;;;;;;15.43;8.15;;;3.10;85.10;;;;;;5029887;28;20033;-66
2020/12/17 06:59:28;;;;;;;13.45;8.38;;;3.10;85.10;;;;;;5028586;28;20083;-65
2020/12/17 07:01:54;;;;;;;13.23;8.90;;;3.10;85.10;;;;;;5030608;28;20030;-65
2020/12/17 07:04:48;;;;;;;11.45;8.40;;;3.10;85.20;;;;;;5030035;28;20061;-65
2020/12/17 07:07:17;;;;;;;14.50;8.90;;;3.10;85.10;;;;;;5030814;28;20371;-66
2020/12/17 07:09:45;;;;;;;15.45;9.00;;;3.10;85.10;;;;;;5028714;28;20076;-66
2020/12/17 07:12:11;;;;;;;13.93;8.63;;;3.10;85.10;;;;;;5024836;28;20014;-66
2020/12/17 07:14:39;;;;;;;16.00;9.48;;;3.10;85.20;;;;;;5030905;28;20072;-66
2020/12/17 07:17:07;;;;;;;14.68;8.90;;;3.20;85.40;;;;;;5025172;28;20439;-67
2020/12/17 07:19:47;;;;;;;15.48;9.15;;;3.20;85.40;;;;;;5034240;28;20037;-66
2020/12/17 07:22:14;;;;;;;15.55;8.70;;;3.30;85.30;;;;;;5034173;28;20037;-66
2020/12/17 07:24:48;;;;;;;13.50;8.23;;;3.30;85.10;;;;;;5034930;28;20021;-66
2020/12/17 07:27:18;;;;;;;14.40;8.35;;;3.40;85.10;;;;;;5027904;28;20151;-66
2020/12/17 07:30:01;;;;;;;15.57;8.68;;;3.40;85.00;;;;;;5033887;28;20033;-66
2020/12/17 07:32:44;;;;;;;16.58;9.32;;;3.50;85.00;;;;;;5034831;28;20029;-66
2020/12/17 07:35:10;;;;;;;14.93;9.10;;;3.50;85.00;;;;;;5034886;28;20424;-66
2020/12/17 07:37:42;;;;;;;16.48;8.98;;;3.50;84.90;;;;;;5034438;28;20045;-66
2020/12/17 07:40:13;;;;;;;10.93;7.03;;;3.60;85.00;;;;;;5034352;28;20105;-66
2020/12/17 07:42:39;;;;;;;17.40;10.20;;;3.60;85.00;;;;;;5034140;28;20022;-66
2020/12/17 07:45:06;;;;;;;17.08;10.77;;;3.70;85.00;;;;;;5034420;28;20044;-66
2020/12/17 07:47:32;;;;;;;20.77;13.90;;;3.70;85.00;;;;;;5034666;28;20021;-66
2020/12/17 07:49:58;;;;;;;17.08;12.02;;;3.70;84.90;;;;;;5033361;28;20026;-66
2020/12/17 07:52:31;;;;;;;19.85;13.43;;;3.80;84.90;;;;;;5034477;28;20018;-66
2020/12/17 07:54:57;;;;;;;21.85;12.48;;;3.90;84.80;;;;;;5034851;28;20026;-66
2020/12/17 07:57:22;;;;;;;20.23;12.05;;;3.90;84.70;;;;;;5034200;28;20105;-66
2020/12/17 07:59:48;;;;;;;15.77;9.40;;;3.90;84.70;;;;;;5015743;28;20316;-66
2020/12/17 08:02:14;;;;;;;15.00;9.60;;;3.90;84.80;;;;;;5033664;28;20102;-66
2020/12/17 08:04:56;;;;;;;14.25;8.75;;;3.90;84.90;;;;;;5016710;28;20029;-67
2020/12/17 08:07:22;;;;;;;12.73;8.45;;;3.80;85.00;;;;;;5033871;28;20025;-67
2020/12/17 08:09:59;;;;;;;11.75;7.40;;;3.80;85.00;;;;;;5033940;28;20367;-66
2020/12/17 08:12:24;;;;;;;13.25;8.80;;;3.90;85.10;;;;;;5033805;28;20029;-67
2020/12/17 08:14:50;;;;;;;14.43;8.52;;;3.90;85.00;;;;;;5033927;28;20493;-66
2020/12/17 08:17:19;;;;;;;12.77;8.27;;;3.90;85.00;;;;;;5034495;28;20021;-66
2020/12/17 08:19:56;;;;;;;14.07;7.95;;;3.90;85.10;;;;;;5033362;28;20033;-66
2020/12/17 08:22:27;;;;;;;11.38;7.55;;;3.90;85.00;;;;;;5034234;28;20032;-66
2020/12/17 08:24:52;;;;;;;13.02;7.75;;;3.90;85.00;;;;;;5033467;28;20501;-65
2020/12/17 08:27:23;;;;;;;11.02;7.43;;;3.90;84.90;;;;;;5022436;28;20026;-65
2020/12/17 08:29:49;;;;;;;10.35;7.07;;;4.00;85.10;;;;;;5033118;28;20040;-65
2020/12/17 08:32:15;;;;;;;15.93;8.55;;;4.00;85.20;;;;;;5033788;28;20029;-66
2020/12/17 08:34:55;;;;;;;12.25;8.02;;;4.10;85.10;;;;;;5033951;28;20480;-66
2020/12/17 08:37:22;;;;;;;13.75;7.95;;;4.10;85.10;;;;;;5032946;28;20045;-66
2020/12/17 08:40:07;;;;;;;11.73;7.90;;;4.20;85.00;;;;;;5033266;28;20052;-66
2020/12/17 08:42:35;;;;;;;12.23;7.90;;;4.30;85.00;;;;;;5032672;28;20044;-66
2020/12/17 08:45:12;;;;;;;11.82;7.70;;;4.40;84.90;;;;;;5033558;28;20104;-66
2020/12/17 08:47:40;;;;;;;30.25;17.13;;;4.40;84.80;;;;;;5033364;28;20433;-66
2020/12/17 08:50:08;;;;;;;12.30;8.02;;;4.50;84.90;;;;;;5032849;28;20026;-66
2020/12/17 08:52:34;;;;;;;12.93;8.65;;;4.60;84.80;;;;;;5032946;28;20124;-66
2020/12/17 08:55:03;;;;;;;12.35;8.18;;;4.70;84.60;;;;;;5015520;28;20117;-66
2020/12/17 08:57:29;;;;;;;14.45;8.07;;;4.70;84.40;;;;;;5033322;28;20033;-66
2020/12/17 08:59:54;;;;;;;10.93;8.07;;;4.80;84.50;;;;;;5032585;28;20036;-66
2020/12/17 09:02:27;;;;;;;13.18;8.48;;;4.90;84.40;;;;;;5033023;28;20083;-66
2020/12/17 09:04:57;;;;;;;10.63;8.23;;;4.90;84.20;;;;;;5032332;28;20065;-66
2020/12/17 09:07:27;;;;;;;13.70;9.38;;;5.00;84.20;;;;;;5033256;28;20469;-66
2020/12/17 09:09:53;;;;;;;12.07;9.32;;;5.00;84.20;;;;;;5032291;28;20414;-65
2020/12/17 09:12:28;;;;;;;15.23;8.98;;;5.00;84.30;;;;;;5033378;28;20029;-66
2020/12/17 09:14:54;;;;;;;11.90;7.13;;;5.00;84.40;;;;;;5013264;28;20054;-67
2020/12/17 09:17:21;;;;;;;10.15;7.57;;;5.10;84.40;;;;;;5024314;28;20489;-66
2020/12/17 09:19:48;;;;;;;12.07;7.80;;;5.10;84.40;;;;;;5014939;28;20053;-66
2020/12/17 09:22:18;;;;;;;12.27;8.10;;;5.20;84.50;;;;;;5032243;28;20028;-66
2020/12/17 09:24:48;;;;;;;10.68;7.68;;;5.20;84.30;;;;;;5033126;28;20017;-66
2020/12/17 09:27:15;;;;;;;9.93;7.55;;;5.30;84.40;;;;;;5026094;28;20449;-66
2020/12/17 09:29:40;;;;;;;10.38;7.65;;;5.30;84.20;;;;;;5032635;28;20032;-66
2020/12/17 09:32:21;;;;;;;9.38;6.78;;;5.40;84.20;;;;;;5032260;28;20108;-66
2020/12/17 09:34:47;;;;;;;10.20;7.32;;;5.40;84.10;;;;;;5033029;28;20087;-66
2020/12/17 09:37:12;;;;;;;10.57;7.47;;;5.40;84.00;;;;;;5031552;28;20041;-66
2020/12/17 09:39:47;;;;;;;11.02;7.15;;;5.50;84.00;;;;;;5032177;28;20109;-66
2020/12/17 09:42:17;;;;;;;10.52;7.20;;;5.50;84.00;;;;;;5031962;28;20426;-66
2020/12/17 09:44:43;;;;;;;11.05;7.10;;;5.50;84.10;;;;;;5032855;28;20142;-66
2020/12/17 09:47:09;;;;;;;10.30;7.13;;;5.60;84.20;;;;;;5031555;28;20021;-66
2020/12/17 09:49:36;;;;;;;9.77;6.82;;;5.60;84.20;;;;;;5032290;28;20026;-66
2020/12/17 09:52:09;;;;;;;10.93;7.40;;;5.70;84.20;;;;;;5032071;28;20033;-66
2020/12/17 09:54:41;;;;;;;11.52;7.28;;;5.70;84.20;;;;;;5032348;28;20120;-66
2020/12/17 09:57:09;;;;;;;10.00;7.22;;;5.80;84.20;;;;;;5014496;28;20029;-66
2020/12/17 09:59:35;;;;;;;11.45;8.45;;;5.80;84.10;;;;;;5014279;28;20021;-66
2020/12/17 10:02:03;;;;;;;11.77;7.30;;;5.90;84.10;;;;;;5031528;28;20389;-66
2020/12/17 10:04:29;;;;;;;11.20;7.60;;;5.90;84.00;;;;;;5032875;28;20025;-66
2020/12/17 10:06:55;;;;;;;12.05;8.35;;;5.90;84.10;;;;;;5031628;28;20025;-66
2020/12/17 10:09:21;;;;;;;11.55;7.70;;;6.00;84.10;;;;;;5031372;28;20030;-66
2020/12/17 10:11:48;;;;;;;10.10;6.90;;;6.00;84.20;;;;;;5014431;28;20490;-66
2020/12/17 10:14:14;;;;;;;9.48;6.85;;;6.00;84.10;;;;;;5031788;28;20065;-66
2020/12/17 10:16:39;;;;;;;10.35;7.13;;;6.10;84.70;;;;;;5032050;28;20107;-65
2020/12/17 10:19:05;;;;;;;10.95;6.65;;;6.10;84.20;;;;;;5031723;28;20036;-66
2020/12/17 10:21:30;;;;;;;9.70;7.40;;;6.20;84.30;;;;;;5031943;28;20026;-66
2020/12/17 10:23:56;;;;;;;13.07;7.80;;;6.20;84.30;;;;;;5031772;28;20041;-65
2020/12/17 10:26:21;;;;;;;11.23;7.25;;;6.30;84.30;;;;;;5028978;28;20493;-66
2020/12/17 10:28:47;;;;;;;13.13;7.13;;;6.30;84.30;;;;;;5031703;28;20334;-66
2020/12/17 10:31:13;;;;;;;10.90;6.65;;;6.40;84.40;;;;;;5031458;28;20036;-65
2020/12/17 10:33:38;;;;;;;10.75;6.85;;;6.50;84.40;;;;;;5031943;28;20028;-66
2020/12/17 10:36:04;;;;;;;10.48;6.57;;;6.60;84.50;;;;;;5032012;28;20056;-66
2020/12/17 10:38:29;;;;;;;10.95;7.00;;;6.60;84.40;;;;;;5030855;28;20041;-66
2020/12/17 10:40:55;;;;;;;8.75;6.60;;;6.70;84.50;;;;;;5013652;28;20080;-66
2020/12/17 10:43:21;;;;;;;9.82;6.60;;;6.80;84.50;;;;;;5031511;28;20112;-66
2020/12/17 10:45:46;;;;;;;8.25;6.53;;;6.90;84.50;;;;;;5031637;28;20026;-66
2020/12/17 10:48:12;;;;;;;10.10;6.90;;;7.00;84.50;;;;;;5013532;28;20038;-66
2020/12/17 10:50:38;;;;;;;6.93;5.80;;;7.10;84.60;;;;;;5013374;28;20385;-66
2020/12/17 10:53:03;;;;;;;7.47;6.03;;;7.20;84.60;;;;;;5014534;28;20432;-66
2020/12/17 10:55:29;;;;;;;8.68;6.30;;;7.30;84.60;;;;;;5029673;28;20025;-66
2020/12/17 10:57:54;;;;;;;8.52;6.30;;;7.40;84.50;;;;;;5034965;28;20076;-66
2020/12/17 11:00:20;;;;;;;10.32;7.45;;;7.50;84.30;;;;;;5034698;28;20669;-66
2020/12/17 11:02:45;;;;;;;9.63;7.35;;;7.60;84.30;;;;;;5035592;28;20028;-65
2020/12/17 11:05:11;;;;;;;11.30;7.25;;;7.70;84.30;;;;;;5035188;28;20069;-66
2020/12/17 11:07:36;;;;;;;8.63;7.05;;;7.70;84.20;;;;;;5035158;28;20048;-66
2020/12/17 11:10:03;;;;;;;8.95;5.90;;;7.90;84.20;;;;;;5017338;28;20538;-66
2020/12/17 11:12:29;;;;;;;5.88;4.95;;;8.00;84.20;;;;;;5035145;28;20099;-66
2020/12/17 11:14:54;;;;;;;5.60;4.13;;;8.10;84.10;;;;;;5035093;28;20033;-66
2020/12/17 11:17:20;;;;;;;9.82;4.60;;;8.20;84.00;;;;;;5035272;28;20038;-66
2020/12/17 11:19:45;;;;;;;6.53;4.28;;;8.30;83.90;;;;;;5034623;28;20032;-66
2020/12/17 11:22:11;;;;;;;6.07;4.20;;;8.40;83.80;;;;;;5035048;28;20026;-66
2020/12/17 11:24:36;;;;;;;6.68;3.92;;;8.60;83.70;;;;;;5034958;28;20444;-66
2020/12/17 11:27:02;;;;;;;6.97;3.67;;;8.70;83.50;;;;;;5034760;28;20065;-66
2020/12/17 11:29:28;;;;;;;7.00;3.75;;;8.80;83.30;;;;;;5034773;28;20029;-66
2020/12/17 11:31:53;;;;;;;6.22;3.75;;;8.90;83.20;;;;;;5034468;28;20042;-66
2020/12/17 11:34:19;;;;;;;4.95;3.63;;;9.00;83.00;;;;;;5035061;28;20087;-66
2020/12/17 11:36:45;;;;;;;6.82;3.45;;;9.10;82.90;;;;;;5034506;28;20673;-66
2020/12/17 11:39:12;;;;;;;4.93;3.47;;;9.20;82.80;;;;;;5034339;28;20048;-66
2020/12/17 11:41:37;;;;;;;7.60;3.60;;;9.20;82.40;;;;;;5034277;28;20044;-66
2020/12/17 11:44:03;;;;;;;4.40;3.78;;;9.30;82.20;;;;;;5016914;28;20390;-66
2020/12/17 11:46:28;;;;;;;5.07;3.47;;;9.50;82.10;;;;;;5034889;28;20029;-66
2020/12/17 11:48:54;;;;;;;6.15;4.10;;;9.50;81.80;;;;;;5031304;28;20048;-66
2020/12/17 11:51:20;;;;;;;6.30;3.85;;;9.60;81.30;;;;;;5034123;28;20037;-66
2020/12/17 11:53:45;;;;;;;7.97;3.97;;;9.70;81.30;;;;;;5034556;28;20055;-66
2020/12/17 11:56:15;;;;;;;4.38;3.70;;;9.70;81.20;;;;;;5034356;28;20398;-66
2020/12/17 11:58:42;;;;;;;7.70;3.92;;;9.80;81.20;;;;;;5016897;28;20022;-66
2020/12/17 12:01:08;;;;;;;4.68;3.60;;;9.90;81.00;;;;;;5033299;28;20033;-67
2020/12/17 12:03:34;;;;;;;6.07;3.42;;;9.90;80.90;;;;;;5034122;28;20052;-67
2020/12/17 12:05:59;;;;;;;6.40;5.03;;;9.90;80.80;;;;;;5033422;28;20049;-67
2020/12/17 12:08:25;;;;;;;7.05;5.00;;;10.00;80.70;;;;;;5034196;28;20115;-67
2020/12/17 12:10:51;;;;;;;7.60;4.65;;;10.20;80.50;;;;;;5014815;28;20049;-67
2020/12/17 12:13:16;;;;;;;6.70;4.85;;;10.40;80.30;;;;;;5034452;28;20446;-67
2020/12/17 12:15:42;;;;;;;6.03;4.10;;;10.60;80.20;;;;;;5034295;28;20060;-67
2020/12/17 12:18:07;;;;;;;7.82;4.82;;;10.80;79.90;;;;;;5032817;28;20033;-65
2020/12/17 12:20:33;;;;;;;5.38;4.00;;;11.00;79.70;;;;;;5033925;28;20029;-67
2020/12/17 12:22:59;;;;;;;8.10;4.18;;;11.10;79.40;;;;;;5033711;28;20100;-67
2020/12/17 12:25:25;;;;;;;6.25;3.33;;;11.10;79.30;;;;;;5034317;28;20095;-66
2020/12/17 12:27:51;;;;;;;4.88;3.22;;;11.20;78.80;;;;;;5017697;28;20022;-66
2020/12/17 12:30:16;;;;;;;5.70;3.40;;;11.20;78.70;;;;;;5032878;28;20105;-67
2020/12/17 12:32:42;;;;;;;5.65;3.75;;;11.20;78.50;;;;;;5035074;28;20489;-66
2020/12/17 12:35:08;;;;;;;6.20;3.45;;;11.20;78.50;;;;;;5032155;28;20031;-66
2020/12/17 12:37:34;;;;;;;3.30;3.00;;;11.10;78.40;;;;;;5035421;28;20035;-66
2020/12/17 12:40:00;;;;;;;4.70;2.85;;;11.00;78.40;;;;;;5033700;28;20477;-66
2020/12/17 12:42:26;;;;;;;4.35;3.40;;;11.00;78.50;;;;;;5033352;28;20040;-66
2020/12/17 12:44:51;;;;;;;5.00;3.22;;;10.90;78.70;;;;;;5034768;28;20013;-66